Time;durP1;ratioP1;P1;durP2;ratioP2;P2;SDS_P1;SDS_P2;PMS_P1;PMS_P2;Temp;Humidity;BMP_temperature;BMP_pressure;BME280_temperature;BME280_humidity;BME280_pressure;Samples;Min_cycle;Max_cycle;Signal;HPM_P1;HPM_P2
2022/03/21 00:01:18;;;;;;;11.67;8.80;;;;;;;;;;4488704;28;20038;-64
2022/03/21 00:03:29;;;;;;;11.15;8.48;;;;;;;;;;4502937;28;20044;-64
2022/03/21 00:05:40;;;;;;;11.40;8.30;;;;;;;;;;4485893;28;20040;-64
2022/03/21 00:07:50;;;;;;;9.90;7.67;;;;;;;;;;4502929;28;20405;-64
2022/03/21 00:10:00;;;;;;;11.13;8.07;;;;;;;;;;4501067;28;20038;-64
2022/03/21 00:12:13;;;;;;;11.27;7.83;;;;;;;;;;4500483;28;24554;-64
2022/03/21 00:14:23;;;;;;;11.98;8.30;;;;;;;;;;4503008;28;20632;-64
2022/03/21 00:16:34;;;;;;;11.43;8.17;;;;;;;;;;4503200;28;21714;-65
2022/03/21 00:18:44;;;;;;;10.77;8.33;;;;;;;;;;4502135;28;28739;-63
2022/03/21 00:20:55;;;;;;;10.00;7.60;;;;;;;;;;4502473;28;20093;-65
2022/03/21 00:23:05;;;;;;;11.33;7.60;;;;;;;;;;4502769;28;20038;-64
2022/03/21 00:25:16;;;;;;;10.87;7.93;;;;;;;;;;4501932;28;34908;-64
2022/03/21 00:27:27;;;;;;;11.50;8.40;;;;;;;;;;4503311;28;20068;-64
2022/03/21 00:29:41;;;;;;;11.82;8.45;;;;;;;;;;4501652;28;20054;-64
2022/03/21 00:31:52;;;;;;;10.70;8.13;;;;;;;;;;4502424;28;21277;-64
2022/03/21 00:34:02;;;;;;;10.90;7.53;;;;;;;;;;4501170;28;20042;-64
2022/03/21 00:36:13;;;;;;;11.03;7.83;;;;;;;;;;4503344;28;20083;-64
2022/03/21 00:38:24;;;;;;;11.20;8.43;;;;;;;;;;4502241;28;32126;-64
2022/03/21 00:40:35;;;;;;;10.13;7.80;;;;;;;;;;4500928;28;20041;-64
2022/03/21 00:42:47;;;;;;;10.97;7.67;;;;;;;;;;4503012;28;20042;-64
2022/03/21 00:44:57;;;;;;;11.07;8.18;;;;;;;;;;4502334;28;20038;-64
2022/03/21 00:47:08;;;;;;;11.30;8.17;;;;;;;;;;4503118;28;20045;-64
2022/03/21 00:49:18;;;;;;;10.30;7.70;;;;;;;;;;4502325;28;20092;-64
2022/03/21 00:51:28;;;;;;;10.43;7.27;;;;;;;;;;4502029;28;21716;-64
2022/03/21 00:53:39;;;;;;;11.37;7.87;;;;;;;;;;4503238;28;20958;-64
2022/03/21 00:55:50;;;;;;;10.03;8.10;;;;;;;;;;4502453;28;20041;-64
2022/03/21 00:58:00;;;;;;;10.55;8.07;;;;;;;;;;4502889;28;20042;-64
2022/03/21 01:00:13;;;;;;;10.30;7.73;;;;;;;;;;4502599;28;26339;-64
2022/03/21 01:02:24;;;;;;;11.02;8.02;;;;;;;;;;4502903;28;20145;-64
2022/03/21 01:04:36;;;;;;;10.40;7.97;;;;;;;;;;4500956;28;20072;-64
2022/03/21 01:06:46;;;;;;;9.88;7.53;;;;;;;;;;4501747;28;20037;-64
2022/03/21 01:08:56;;;;;;;9.97;7.13;;;;;;;;;;4502670;28;21001;-65
2022/03/21 01:11:07;;;;;;;10.30;8.00;;;;;;;;;;4502433;28;20448;-64
2022/03/21 01:13:18;;;;;;;9.57;6.80;;;;;;;;;;4502308;28;20083;-64
2022/03/21 01:15:29;;;;;;;10.60;7.28;;;;;;;;;;4502677;28;20232;-64
2022/03/21 01:17:42;;;;;;;9.93;7.15;;;;;;;;;;4503172;28;20030;-64
2022/03/21 01:19:53;;;;;;;10.50;7.43;;;;;;;;;;4502302;28;21317;-64
2022/03/21 01:22:06;;;;;;;10.18;7.47;;;;;;;;;;4501781;28;20038;-64
2022/03/21 01:24:16;;;;;;;10.35;7.38;;;;;;;;;;4501554;28;20914;-64
2022/03/21 01:26:27;;;;;;;10.50;7.57;;;;;;;;;;4502158;28;37764;-64
2022/03/21 01:28:37;;;;;;;11.17;7.27;;;;;;;;;;4502819;28;20076;-64
2022/03/21 01:30:48;;;;;;;11.20;8.00;;;;;;;;;;4501507;28;20076;-64
2022/03/21 01:32:58;;;;;;;10.00;7.53;;;;;;;;;;4501838;28;20034;-64
2022/03/21 01:35:15;;;;;;;9.70;7.57;;;;;;;;;;4502816;28;20763;-64
2022/03/21 01:37:25;;;;;;;10.75;7.78;;;;;;;;;;4484773;28;20978;-64
2022/03/21 01:39:36;;;;;;;10.97;8.00;;;;;;;;;;4502133;28;20042;-64
2022/03/21 01:41:47;;;;;;;10.50;7.57;;;;;;;;;;4501798;28;20037;-64
2022/03/21 01:44:00;;;;;;;10.93;7.73;;;;;;;;;;4502391;28;20371;-64
2022/03/21 01:46:10;;;;;;;10.38;8.10;;;;;;;;;;4502194;28;20084;-64
2022/03/21 01:48:21;;;;;;;10.60;7.80;;;;;;;;;;4502496;28;20042;-64
2022/03/21 01:50:32;;;;;;;11.07;7.50;;;;;;;;;;4500645;28;32130;-64
2022/03/21 01:52:43;;;;;;;11.18;7.72;;;;;;;;;;4500990;28;20044;-64
2022/03/21 01:57:22;;;;;;;10.63;7.93;;;;;;;;;;4505494;28;20037;-64
2022/03/21 01:59:33;;;;;;;9.17;7.20;;;;;;;;;;4505355;28;20030;-64
2022/03/21 02:01:44;;;;;;;10.32;7.85;;;;;;;;;;4504287;28;20149;-64
2022/03/21 02:03:56;;;;;;;10.77;7.95;;;;;;;;;;4505312;28;20034;-64
2022/03/21 02:06:06;;;;;;;10.97;8.33;;;;;;;;;;4503301;28;20034;-64
2022/03/21 02:08:17;;;;;;;9.37;7.50;;;;;;;;;;4504787;28;20077;-64
2022/03/21 02:10:28;;;;;;;9.80;7.20;;;;;;;;;;4505045;28;20038;-64
2022/03/21 02:12:39;;;;;;;10.63;7.75;;;;;;;;;;4503808;28;20124;-64
2022/03/21 02:14:50;;;;;;;10.47;7.70;;;;;;;;;;4504985;28;20119;-64
2022/03/21 02:17:00;;;;;;;9.87;7.37;;;;;;;;;;4502748;28;35658;-64
2022/03/21 02:19:16;;;;;;;11.30;8.03;;;;;;;;;;4502637;28;20038;-64
2022/03/21 02:21:54;;;;;;;10.05;7.60;;;;;;;;;;4505265;28;20052;-64
2022/03/21 02:24:13;;;;;;;10.50;8.00;;;;;;;;;;4503840;28;21002;-64
2022/03/21 02:26:24;;;;;;;9.73;7.30;;;;;;;;;;4503220;28;20038;-64
2022/03/21 02:28:35;;;;;;;10.80;7.90;;;;;;;;;;4504246;28;20053;-64
2022/03/21 02:30:48;;;;;;;10.80;8.23;;;;;;;;;;4503193;28;20044;-64
2022/03/21 02:33:00;;;;;;;10.65;7.60;;;;;;;;;;4505381;28;20076;-64
2022/03/21 02:35:13;;;;;;;9.70;7.05;;;;;;;;;;4504268;28;20041;-64
2022/03/21 02:37:25;;;;;;;10.55;7.90;;;;;;;;;;4504734;28;20165;-64
2022/03/21 02:39:36;;;;;;;10.15;7.72;;;;;;;;;;4503080;28;20129;-64
2022/03/21 02:41:47;;;;;;;9.50;7.38;;;;;;;;;;4504732;28;20018;-64
2022/03/21 02:43:59;;;;;;;10.55;7.70;;;;;;;;;;4504899;28;20030;-64
2022/03/21 02:46:09;;;;;;;11.82;8.30;;;;;;;;;;4504349;28;20088;-64
2022/03/21 02:48:20;;;;;;;10.20;7.97;;;;;;;;;;4504541;28;20498;-64
2022/03/21 02:50:39;;;;;;;10.23;7.80;;;;;;;;;;4503006;28;20092;-64
2022/03/21 02:52:50;;;;;;;10.23;7.43;;;;;;;;;;4503688;28;20042;-64
2022/03/21 02:55:00;;;;;;;10.93;7.80;;;;;;;;;;4487124;28;20043;-64
2022/03/21 02:57:11;;;;;;;9.90;7.60;;;;;;;;;;4504479;28;27653;-64
2022/03/21 02:59:21;;;;;;;10.37;7.87;;;;;;;;;;4503934;28;20532;-64
2022/03/21 03:01:32;;;;;;;9.90;7.50;;;;;;;;;;4503608;28;20029;-64
2022/03/21 03:03:44;;;;;;;10.85;8.35;;;;;;;;;;4504537;28;20033;-64
2022/03/21 03:05:54;;;;;;;;;;;;;;;;;;4503383;28;20141;-64
2022/03/21 03:08:05;;;;;;;10.88;7.80;;;;;;;;;;4504159;28;20367;-64
2022/03/21 03:10:15;;;;;;;9.30;6.87;;;;;;;;;;4504664;28;20038;-64
2022/03/21 03:12:26;;;;;;;9.90;7.47;;;;;;;;;;4504558;28;20046;-66
2022/03/21 03:14:37;;;;;;;10.60;7.57;;;;;;;;;;4505220;28;20033;-64
2022/03/21 03:16:47;;;;;;;9.00;6.80;;;;;;;;;;4504719;28;20265;-64
2022/03/21 03:18:58;;;;;;;9.53;6.97;;;;;;;;;;4503159;28;20041;-64
2022/03/21 03:21:09;;;;;;;9.47;6.87;;;;;;;;;;4504519;28;20064;-64
2022/03/21 03:23:21;;;;;;;;;;;;;;;;;;4504084;28;20041;-64
2022/03/21 03:25:31;;;;;;;10.43;7.47;;;;;;;;;;4504256;28;20535;-64
2022/03/21 03:27:41;;;;;;;9.97;7.27;;;;;;;;;;4503464;28;26591;-64
2022/03/21 03:29:52;;;;;;;9.73;7.40;;;;;;;;;;4500804;28;39556;-65
2022/03/21 03:32:03;;;;;;;10.37;7.70;;;;;;;;;;4496651;28;20868;-64
2022/03/21 03:34:14;;;;;;;9.75;7.18;;;;;;;;;;4504840;28;20041;-64
2022/03/21 03:36:24;;;;;;;10.10;7.63;;;;;;;;;;4504870;28;20044;-64
2022/03/21 03:38:35;;;;;;;9.10;7.37;;;;;;;;;;4504667;28;20041;-64
2022/03/21 03:40:45;;;;;;;10.10;7.77;;;;;;;;;;4503488;28;39592;-64
2022/03/21 03:42:56;;;;;;;10.23;7.43;;;;;;;;;;4503414;28;20076;-64
2022/03/21 03:45:07;;;;;;;9.97;7.57;;;;;;;;;;4504739;28;20030;-64
2022/03/21 03:47:17;;;;;;;10.48;7.72;;;;;;;;;;4503948;28;20037;-64
2022/03/21 03:49:28;;;;;;;10.30;7.57;;;;;;;;;;4504323;28;20044;-64
2022/03/21 03:51:38;;;;;;;11.17;8.00;;;;;;;;;;4503094;28;20046;-64
2022/03/21 03:53:48;;;;;;;9.43;7.20;;;;;;;;;;4504349;28;20473;-64
2022/03/21 03:55:59;;;;;;;9.97;7.43;;;;;;;;;;4503994;28;31998;-65
2022/03/21 03:58:10;;;;;;;9.70;7.03;;;;;;;;;;4505824;28;20026;-65
2022/03/21 04:00:21;;;;;;;10.70;7.40;;;;;;;;;;4504223;28;20038;-65
2022/03/21 04:03:44;;;;;;;10.57;7.03;;;;;;;;;;4503623;28;20034;-64
2022/03/21 04:05:02;;;;;;;9.70;7.05;;;;;;;;;;4504193;28;20041;-65
2022/03/21 04:07:12;;;;;;;9.57;7.00;;;;;;;;;;4505123;28;20065;-64
2022/03/21 04:09:22;;;;;;;9.63;6.53;;;;;;;;;;4503919;28;20044;-64
2022/03/21 04:11:34;;;;;;;9.50;7.00;;;;;;;;;;4503477;28;22485;-64
2022/03/21 04:13:46;;;;;;;9.32;6.85;;;;;;;;;;4503803;28;20029;-64
2022/03/21 04:15:57;;;;;;;9.68;7.32;;;;;;;;;;4502877;28;20085;-65
2022/03/21 04:18:07;;;;;;;9.07;6.82;;;;;;;;;;4503000;28;20577;-64
2022/03/21 04:20:18;;;;;;;10.03;7.07;;;;;;;;;;4503653;28;20061;-65
2022/03/21 04:22:29;;;;;;;9.20;6.77;;;;;;;;;;4503650;28;20036;-65
2022/03/21 04:24:39;;;;;;;8.77;7.10;;;;;;;;;;4504084;28;20245;-64
2022/03/21 04:26:50;;;;;;;10.43;7.00;;;;;;;;;;4501966;28;29994;-65
2022/03/21 04:29:04;;;;;;;9.23;6.73;;;;;;;;;;4504390;28;20049;-64
2022/03/21 04:31:14;;;;;;;10.27;7.32;;;;;;;;;;4503153;28;20037;-65
2022/03/21 04:33:25;;;;;;;8.77;6.73;;;;;;;;;;4503910;28;20042;-64
2022/03/21 04:35:36;;;;;;;9.87;7.33;;;;;;;;;;4503011;28;20821;-65
2022/03/21 04:37:47;;;;;;;9.18;6.80;;;;;;;;;;4503404;28;20075;-65
2022/03/21 04:39:58;;;;;;;10.40;6.97;;;;;;;;;;4502042;28;22052;-65
2022/03/21 04:42:08;;;;;;;10.02;7.22;;;;;;;;;;4503636;28;20092;-65
2022/03/21 04:44:19;;;;;;;8.43;6.37;;;;;;;;;;4501727;28;20037;-64
2022/03/21 04:46:29;;;;;;;9.47;7.30;;;;;;;;;;4502037;28;20030;-64
2022/03/21 04:48:39;;;;;;;10.17;7.40;;;;;;;;;;4502937;28;20060;-65
2022/03/21 04:50:51;;;;;;;8.63;6.37;;;;;;;;;;4501744;28;27255;-65
2022/03/21 04:53:02;;;;;;;9.50;7.15;;;;;;;;;;4502010;28;20037;-64
2022/03/21 04:55:12;;;;;;;10.27;7.00;;;;;;;;;;4504053;28;20409;-64
2022/03/21 04:57:23;;;;;;;10.17;6.90;;;;;;;;;;4502909;28;20273;-65
2022/03/21 04:59:33;;;;;;;10.57;7.23;;;;;;;;;;4502848;28;20037;-65
2022/03/21 05:01:44;;;;;;;10.10;6.87;;;;;;;;;;4504831;28;39649;-64
2022/03/21 05:03:55;;;;;;;9.63;7.10;;;;;;;;;;4503132;28;20042;-64
2022/03/21 05:06:05;;;;;;;9.13;6.88;;;;;;;;;;4503562;28;20025;-65
2022/03/21 05:08:16;;;;;;;11.23;7.13;;;;;;;;;;4503222;28;20053;-65
2022/03/21 05:10:26;;;;;;;9.33;6.63;;;;;;;;;;4501734;28;20042;-65
2022/03/21 05:12:37;;;;;;;9.80;7.10;;;;;;;;;;4501968;28;20180;-65
2022/03/21 05:14:47;;;;;;;9.60;7.10;;;;;;;;;;4501620;28;20415;-64
2022/03/21 05:17:02;;;;;;;10.13;6.40;;;;;;;;;;4485099;28;21016;-64
2022/03/21 05:19:12;;;;;;;10.23;6.85;;;;;;;;;;4502453;28;20030;-64
2022/03/21 05:21:23;;;;;;;9.30;6.73;;;;;;;;;;4501548;28;20037;-64
2022/03/21 05:31:01;;;;;;;8.73;6.63;;;;;;;;;;4506731;28;20025;-65
2022/03/21 05:35:55;;;;;;;10.60;7.22;;;;;;;;;;4506356;28;20033;-65
2022/03/21 05:38:06;;;;;;;10.05;7.35;;;;;;;;;;4505580;28;20538;-65
2022/03/21 05:40:31;;;;;;;9.37;7.23;;;;;;;;;;4504894;28;36134;-64
2022/03/21 05:42:42;;;;;;;9.05;7.00;;;;;;;;;;4505352;28;20601;-64
2022/03/21 05:44:52;;;;;;;9.13;6.83;;;;;;;;;;4504239;28;20058;-64
2022/03/21 05:47:03;;;;;;;9.37;6.60;;;;;;;;;;4503627;28;20125;-65
2022/03/21 05:49:14;;;;;;;8.77;6.33;;;;;;;;;;4504887;28;20041;-65
2022/03/21 05:51:30;;;;;;;11.00;7.20;;;;;;;;;;4503805;28;20144;-64
2022/03/21 05:53:41;;;;;;;9.70;7.07;;;;;;;;;;4503846;28;20038;-64
2022/03/21 05:55:52;;;;;;;9.35;6.38;;;;;;;;;;4503808;28;20053;-65
2022/03/21 05:58:02;;;;;;;9.90;6.73;;;;;;;;;;4497627;28;20044;-65
2022/03/21 06:00:22;;;;;;;8.73;6.87;;;;;;;;;;4503582;28;20059;-64
2022/03/21 06:02:32;;;;;;;8.85;6.88;;;;;;;;;;4503924;28;20576;-64
2022/03/21 06:04:43;;;;;;;8.90;6.40;;;;;;;;;;4504428;28;20092;-65
2022/03/21 06:06:55;;;;;;;8.88;6.40;;;;;;;;;;4503301;28;20729;-64
2022/03/21 06:09:05;;;;;;;9.30;6.72;;;;;;;;;;4504014;28;21339;-66
2022/03/21 06:11:15;;;;;;;9.33;6.87;;;;;;;;;;4504049;28;20042;-64
2022/03/21 06:13:27;;;;;;;9.33;6.60;;;;;;;;;;4503846;28;20038;-64
2022/03/21 06:15:37;;;;;;;8.75;5.97;;;;;;;;;;4502655;28;20490;-64
2022/03/21 06:17:48;;;;;;;8.53;6.40;;;;;;;;;;4504363;28;20038;-64
2022/03/21 06:19:58;;;;;;;9.43;6.90;;;;;;;;;;4504349;28;20277;-64
2022/03/21 06:22:09;;;;;;;9.23;6.60;;;;;;;;;;4502499;28;20038;-64
2022/03/21 06:24:19;;;;;;;8.00;6.00;;;;;;;;;;4503155;28;21570;-64
2022/03/21 06:26:29;;;;;;;10.07;6.90;;;;;;;;;;4503816;28;20053;-64
2022/03/21 06:28:40;;;;;;;8.60;6.37;;;;;;;;;;4502602;28;20069;-64
2022/03/21 06:30:51;;;;;;;9.20;6.70;;;;;;;;;;4504417;28;20493;-64
2022/03/21 06:33:02;;;;;;;9.27;6.53;;;;;;;;;;4503276;28;20342;-64
2022/03/21 06:35:12;;;;;;;9.90;6.93;;;;;;;;;;4503279;28;27415;-65
2022/03/21 06:37:23;;;;;;;9.80;6.73;;;;;;;;;;4503855;28;20046;-64
2022/03/21 06:39:33;;;;;;;8.53;6.47;;;;;;;;;;4505250;28;20069;-64
2022/03/21 06:41:44;;;;;;;9.63;6.97;;;;;;;;;;4502521;28;20086;-64
2022/03/21 06:43:54;;;;;;;9.37;6.60;;;;;;;;;;4503069;28;20049;-65
2022/03/21 06:46:05;;;;;;;10.17;6.50;;;;;;;;;;4504291;28;20045;-65
2022/03/21 06:48:15;;;;;;;9.60;7.00;;;;;;;;;;4503272;28;21056;-64
2022/03/21 06:50:26;;;;;;;9.67;6.97;;;;;;;;;;4500154;28;20038;-65
2022/03/21 06:52:39;;;;;;;8.63;6.63;;;;;;;;;;4504348;28;31819;-63
2022/03/21 06:54:49;;;;;;;9.55;6.53;;;;;;;;;;4503887;28;20126;-65
2022/03/21 06:57:00;;;;;;;9.37;6.60;;;;;;;;;;4517626;28;20044;-64
2022/03/21 06:59:10;;;;;;;8.87;6.20;;;;;;;;;;4503743;28;20036;-64
2022/03/21 07:01:21;;;;;;;9.00;6.90;;;;;;;;;;4498160;28;20132;-64
2022/03/21 07:03:32;;;;;;;8.80;6.57;;;;;;;;;;4504968;28;20052;-64
2022/03/21 07:05:43;;;;;;;9.60;6.60;;;;;;;;;;4505050;28;20133;-64
2022/03/21 07:07:54;;;;;;;9.88;7.35;;;;;;;;;;4502801;28;20038;-64
2022/03/21 07:10:06;;;;;;;9.88;7.18;;;;;;;;;;4503948;28;20049;-66
2022/03/21 07:12:18;;;;;;;9.85;6.72;;;;;;;;;;4503118;28;20044;-64
2022/03/21 07:14:29;;;;;;;10.25;7.07;;;;;;;;;;4504332;28;20730;-65
2022/03/21 07:16:39;;;;;;;10.23;6.70;;;;;;;;;;4503019;28;25266;-65
2022/03/21 07:18:50;;;;;;;9.83;6.73;;;;;;;;;;4504260;28;20046;-65
2022/03/21 07:21:00;;;;;;;9.50;6.53;;;;;;;;;;4504071;28;20086;-64
2022/03/21 07:23:10;;;;;;;8.37;6.43;;;;;;;;;;4503955;28;20034;-64
2022/03/21 07:25:21;;;;;;;9.80;6.83;;;;;;;;;;4503045;28;20116;-64
2022/03/21 07:27:32;;;;;;;11.03;6.97;;;;;;;;;;4503893;28;20113;-64
2022/03/21 07:29:43;;;;;;;9.75;6.82;;;;;;;;;;4503061;28;21419;-63
2022/03/21 07:31:54;;;;;;;9.87;7.07;;;;;;;;;;4503158;28;20042;-64
2022/03/21 07:34:04;;;;;;;10.70;6.67;;;;;;;;;;4504188;28;20042;-64
2022/03/21 07:36:15;;;;;;;9.50;6.50;;;;;;;;;;4503391;28;20173;-64
2022/03/21 07:38:28;;;;;;;9.83;6.53;;;;;;;;;;4519486;28;20034;-64
2022/03/21 07:40:38;;;;;;;9.82;6.63;;;;;;;;;;4503490;28;20307;-65
2022/03/21 07:42:49;;;;;;;8.87;6.13;;;;;;;;;;4503512;28;22316;-64
2022/03/21 07:47:28;;;;;;;9.38;6.72;;;;;;;;;;4503043;28;20041;-64
2022/03/21 07:49:38;;;;;;;9.67;6.60;;;;;;;;;;4504436;28;20042;-64
2022/03/21 07:51:49;;;;;;;8.47;6.13;;;;;;;;;;4503481;28;20050;-64
2022/03/21 07:53:59;;;;;;;9.70;6.70;;;;;;;;;;4502615;28;20382;-64
2022/03/21 07:56:10;;;;;;;9.00;6.77;;;;;;;;;;4503212;28;20363;-64
2022/03/21 07:58:20;;;;;;;9.33;6.60;;;;;;;;;;4518479;28;20049;-64
2022/03/21 08:00:31;;;;;;;10.00;6.20;;;;;;;;;;4497390;28;20038;-64
2022/03/21 08:02:43;;;;;;;9.95;6.63;;;;;;;;;;4503357;28;20038;-64
2022/03/21 08:04:53;;;;;;;10.02;6.63;;;;;;;;;;4503002;28;20680;-64
2022/03/21 08:07:04;;;;;;;8.63;6.10;;;;;;;;;;4496375;28;20034;-65
2022/03/21 08:09:15;;;;;;;9.17;6.40;;;;;;;;;;4503227;28;20061;-64
2022/03/21 08:11:25;;;;;;;9.83;6.60;;;;;;;;;;4502200;28;20263;-65
2022/03/21 08:13:36;;;;;;;9.10;6.70;;;;;;;;;;4503614;28;20085;-64
2022/03/21 08:15:47;;;;;;;10.63;6.70;;;;;;;;;;4503573;28;20041;-65
2022/03/21 08:18:01;;;;;;;8.73;6.07;;;;;;;;;;4503691;28;20042;-64
2022/03/21 08:20:11;;;;;;;9.40;6.60;;;;;;;;;;4485105;28;25910;-64
2022/03/21 08:22:21;;;;;;;8.50;6.20;;;;;;;;;;4502698;28;20042;-64
2022/03/21 08:24:35;;;;;;;9.40;6.50;;;;;;;;;;4503607;28;20520;-64
2022/03/21 08:26:45;;;;;;;9.77;6.40;;;;;;;;;;4503462;28;20038;-64
2022/03/21 08:28:56;;;;;;;9.10;6.47;;;;;;;;;;4503207;28;20050;-64
2022/03/21 08:31:06;;;;;;;8.57;6.20;;;;;;;;;;4502771;28;20034;-64
2022/03/21 08:33:17;;;;;;;9.57;6.57;;;;;;;;;;4503234;28;20146;-64
2022/03/21 08:35:28;;;;;;;8.47;6.20;;;;;;;;;;4502481;28;20052;-64
2022/03/21 08:37:39;;;;;;;9.53;6.30;;;;;;;;;;4496682;28;20084;-64
2022/03/21 08:39:49;;;;;;;9.88;6.40;;;;;;;;;;4503209;28;20111;-64
2022/03/21 08:42:00;;;;;;;8.93;6.30;;;;;;;;;;4503790;28;20081;-65
2022/03/21 08:44:10;;;;;;;8.90;6.60;;;;;;;;;;4502867;28;20034;-64
2022/03/21 08:46:21;;;;;;;9.40;6.40;;;;;;;;;;4502753;28;20037;-64
2022/03/21 08:51:00;;;;;;;8.90;6.65;;;;;;;;;;4502414;28;20130;-64
2022/03/21 08:53:11;;;;;;;9.77;6.70;;;;;;;;;;4502985;28;20142;-64
2022/03/21 08:55:21;;;;;;;9.90;6.73;;;;;;;;;;4501814;28;20037;-64
2022/03/21 08:57:32;;;;;;;10.50;6.50;;;;;;;;;;4503641;28;20046;-64
2022/03/21 08:59:42;;;;;;;9.63;6.40;;;;;;;;;;4503375;28;20041;-64
2022/03/21 09:01:53;;;;;;;9.30;6.50;;;;;;;;;;4503693;28;20084;-64
2022/03/21 09:04:04;;;;;;;9.97;6.60;;;;;;;;;;4485115;28;20398;-64
2022/03/21 09:06:15;;;;;;;7.70;6.03;;;;;;;;;;4501528;28;20085;-64
2022/03/21 09:08:25;;;;;;;9.50;6.83;;;;;;;;;;4503102;28;20048;-64
2022/03/21 09:10:35;;;;;;;10.80;7.00;;;;;;;;;;4502297;28;26585;-64
2022/03/21 09:12:47;;;;;;;8.40;6.37;;;;;;;;;;4503284;28;20553;-64
2022/03/21 09:14:59;;;;;;;8.98;6.25;;;;;;;;;;4501165;28;20856;-64
2022/03/21 09:17:10;;;;;;;9.20;6.50;;;;;;;;;;4502188;28;20040;-64
2022/03/21 09:19:22;;;;;;;9.13;6.20;;;;;;;;;;4500583;28;20030;-64
2022/03/21 09:21:33;;;;;;;9.40;6.55;;;;;;;;;;4502765;28;20970;-64
2022/03/21 09:23:43;;;;;;;9.33;6.80;;;;;;;;;;4502649;28;20034;-63
2022/03/21 09:25:54;;;;;;;9.00;6.67;;;;;;;;;;4502138;28;33860;-67
2022/03/21 09:28:04;;;;;;;9.40;6.80;;;;;;;;;;4501907;28;20046;-67
2022/03/21 09:30:14;;;;;;;9.60;6.90;;;;;;;;;;4501769;28;20034;-63
2022/03/21 09:32:25;;;;;;;10.07;6.87;;;;;;;;;;4502039;28;20050;-63
2022/03/21 09:34:39;;;;;;;10.30;7.00;;;;;;;;;;4503153;28;20400;-63
2022/03/21 09:36:50;;;;;;;9.38;6.28;;;;;;;;;;4503029;28;20065;-63
2022/03/21 09:39:01;;;;;;;10.55;6.95;;;;;;;;;;4502295;28;20084;-63
2022/03/21 09:41:22;;;;;;;9.80;6.93;;;;;;;;;;4501377;28;20188;-63
2022/03/21 09:43:32;;;;;;;9.45;6.32;;;;;;;;;;4501166;28;20081;-63
2022/03/21 09:45:43;;;;;;;10.67;6.93;;;;;;;;;;4500982;28;20129;-63
2022/03/21 09:48:09;;;;;;;9.83;6.83;;;;;;;;;;4502372;28;20046;-63
2022/03/21 09:50:19;;;;;;;10.05;6.95;;;;;;;;;;4501867;28;20089;-63
2022/03/21 09:52:30;;;;;;;8.53;6.50;;;;;;;;;;4503100;28;20112;-63
2022/03/21 09:54:40;;;;;;;9.30;6.27;;;;;;;;;;4501686;28;20093;-63
2022/03/21 09:56:51;;;;;;;9.77;6.27;;;;;;;;;;4501148;28;20034;-63
2022/03/21 09:59:01;;;;;;;9.83;6.67;;;;;;;;;;4502311;28;20541;-63
2022/03/21 10:01:12;;;;;;;9.40;6.80;;;;;;;;;;4502041;28;20034;-63
2022/03/21 10:03:22;;;;;;;10.23;7.13;;;;;;;;;;4484052;28;20026;-63
2022/03/21 10:05:42;;;;;;;10.53;7.77;;;;;;;;;;4502795;28;20038;-63
2022/03/21 10:07:52;;;;;;;11.32;7.80;;;;;;;;;;4501201;28;20746;-63
2022/03/21 10:10:08;;;;;;;9.83;7.20;;;;;;;;;;4502709;28;20129;-63
2022/03/21 10:12:20;;;;;;;9.77;6.90;;;;;;;;;;4499883;28;20085;-63
2022/03/21 10:14:36;;;;;;;8.48;6.72;;;;;;;;;;4502355;28;20034;-63
2022/03/21 10:17:07;;;;;;;9.40;7.10;;;;;;;;;;4503493;28;20149;-63
2022/03/21 10:19:17;;;;;;;10.00;7.00;;;;;;;;;;4487862;28;20043;-63
2022/03/21 10:21:30;;;;;;;10.43;7.17;;;;;;;;;;4506339;28;20046;-63
2022/03/21 10:23:41;;;;;;;9.75;6.82;;;;;;;;;;4520542;28;20029;-63
2022/03/21 10:25:52;;;;;;;10.02;7.47;;;;;;;;;;4504914;28;20556;-63
2022/03/21 10:28:02;;;;;;;10.30;7.53;;;;;;;;;;4505243;28;20088;-63
2022/03/21 10:30:15;;;;;;;11.10;7.77;;;;;;;;;;4505544;28;20042;-63
2022/03/21 10:32:31;;;;;;;10.50;7.47;;;;;;;;;;4504829;28;20037;-63
2022/03/21 10:34:42;;;;;;;9.50;6.90;;;;;;;;;;4504839;28;20092;-63
2022/03/21 10:37:07;;;;;;;9.90;7.07;;;;;;;;;;4503564;28;20022;-63
2022/03/21 10:39:18;;;;;;;10.00;7.03;;;;;;;;;;4504475;28;20623;-63
2022/03/21 10:41:36;;;;;;;10.43;6.90;;;;;;;;;;4503783;28;20053;-63
2022/03/21 10:43:56;;;;;;;11.60;7.40;;;;;;;;;;4502732;28;20080;-63
2022/03/21 10:46:08;;;;;;;10.50;7.72;;;;;;;;;;4504903;28;20036;-63
2022/03/21 10:48:21;;;;;;;10.93;7.63;;;;;;;;;;4504867;28;20093;-63
2022/03/21 10:50:35;;;;;;;12.05;8.25;;;;;;;;;;4502633;28;20037;-63
2022/03/21 10:53:03;;;;;;;11.43;7.60;;;;;;;;;;4496901;28;20053;-63
2022/03/21 10:55:21;;;;;;;10.63;7.32;;;;;;;;;;4503643;28;20044;-63
2022/03/21 10:57:34;;;;;;;10.48;7.60;;;;;;;;;;4504625;28;20048;-63
2022/03/21 10:59:44;;;;;;;10.80;7.68;;;;;;;;;;4503858;28;20034;-63
2022/03/21 11:02:14;;;;;;;10.13;7.30;;;;;;;;;;4504151;28;31272;-63
2022/03/21 11:04:25;;;;;;;10.75;7.25;;;;;;;;;;4478062;28;20042;-63
2022/03/21 11:06:35;;;;;;;11.80;7.90;;;;;;;;;;4503827;28;20033;-65
2022/03/21 11:08:50;;;;;;;10.23;7.57;;;;;;;;;;4502752;28;20054;-63
2022/03/21 11:11:00;;;;;;;12.18;8.23;;;;;;;;;;4503188;28;20030;-65
2022/03/21 11:13:11;;;;;;;12.43;8.47;;;;;;;;;;4504677;28;20999;-64
2022/03/21 11:15:23;;;;;;;12.00;7.63;;;;;;;;;;4503927;28;20117;-63
2022/03/21 11:17:33;;;;;;;11.88;7.88;;;;;;;;;;4503013;28;20038;-64
2022/03/21 11:19:43;;;;;;;11.33;7.73;;;;;;;;;;4503488;28;20490;-64
2022/03/21 11:21:54;;;;;;;13.40;8.47;;;;;;;;;;4504849;28;20038;-64
2022/03/21 11:24:09;;;;;;;11.80;8.03;;;;;;;;;;4502584;28;20071;-63
2022/03/21 11:26:31;;;;;;;10.77;7.88;;;;;;;;;;4504209;28;20041;-64
2022/03/21 11:28:50;;;;;;;;;;;;;;;;;;4498179;28;20055;-63
2022/03/21 11:31:22;;;;;;;11.48;8.00;;;;;;;;;;4503779;28;19914;-64
2022/03/21 11:33:39;;;;;;;10.95;8.32;;;;;;;;;;4502919;28;20140;-63
2022/03/21 11:35:51;;;;;;;12.32;8.88;;;;;;;;;;4502863;28;20569;-63
2022/03/21 11:38:30;;;;;;;11.52;8.00;;;;;;;;;;4503058;28;20616;-64
2022/03/21 11:40:41;;;;;;;12.40;8.10;;;;;;;;;;4503866;28;20076;-65
2022/03/21 11:42:53;;;;;;;12.17;8.20;;;;;;;;;;4503819;28;20124;-63
2022/03/21 11:45:23;;;;;;;12.10;8.25;;;;;;;;;;4504232;28;20049;-64
2022/03/21 11:47:35;;;;;;;11.15;8.07;;;;;;;;;;4498284;28;20153;-64
2022/03/21 11:49:45;;;;;;;;;;;;;;;;;;4503536;28;20545;-64
2022/03/21 11:51:59;;;;;;;11.18;7.97;;;;;;;;;;4502896;28;20404;-64
2022/03/21 11:54:30;;;;;;;11.95;8.23;;;;;;;;;;4517354;28;20029;-63
2022/03/21 11:56:40;;;;;;;11.65;8.48;;;;;;;;;;4503207;28;20073;-63
2022/03/21 11:58:51;;;;;;;11.73;8.60;;;;;;;;;;4503575;28;20601;-64
2022/03/21 12:01:04;;;;;;;11.63;8.20;;;;;;;;;;4503950;28;20050;-64
2022/03/21 12:03:35;;;;;;;11.93;8.30;;;;;;;;;;4503570;28;20038;-63
2022/03/21 12:05:50;;;;;;;11.40;8.27;;;;;;;;;;4503413;28;20627;-64
2022/03/21 12:08:29;;;;;;;11.93;8.38;;;;;;;;;;4503747;28;20284;-64
2022/03/21 12:10:39;;;;;;;11.48;8.23;;;;;;;;;;4503503;28;20038;-63
2022/03/21 12:12:51;;;;;;;11.40;8.07;;;;;;;;;;4503563;28;20045;-63
2022/03/21 12:15:13;;;;;;;12.65;7.95;;;;;;;;;;4502736;28;20062;-64
2022/03/21 12:17:25;;;;;;;11.98;8.50;;;;;;;;;;4503672;28;20038;-64
2022/03/21 12:19:44;;;;;;;12.07;8.55;;;;;;;;;;4502721;28;20042;-63
2022/03/21 12:22:29;;;;;;;12.23;8.25;;;;;;;;;;4502730;28;20600;-63
2022/03/21 12:24:49;;;;;;;11.85;8.32;;;;;;;;;;4501885;28;20080;-63
2022/03/21 12:27:05;;;;;;;11.68;8.63;;;;;;;;;;4503228;28;22662;-64
2022/03/21 12:29:33;;;;;;;11.82;8.60;;;;;;;;;;4502518;28;20113;-64
2022/03/21 12:31:43;;;;;;;11.75;8.48;;;;;;;;;;4502283;28;21124;-63
2022/03/21 12:34:32;;;;;;;12.53;8.40;;;;;;;;;;4501967;28;20045;-63
2022/03/21 12:36:42;;;;;;;11.77;8.45;;;;;;;;;;4502397;28;20088;-64
2022/03/21 12:38:53;;;;;;;10.33;8.17;;;;;;;;;;4500030;28;20113;-64
2022/03/21 12:41:06;;;;;;;12.03;8.33;;;;;;;;;;4502169;28;22748;-63
2022/03/21 12:43:25;;;;;;;11.90;8.63;;;;;;;;;;4502937;28;20073;-63
2022/03/21 12:45:35;;;;;;;11.55;8.18;;;;;;;;;;4503415;28;20049;-63
2022/03/21 12:47:49;;;;;;;11.77;8.63;;;;;;;;;;4502717;28;20088;-63
2022/03/21 12:50:00;;;;;;;12.63;8.90;;;;;;;;;;4502868;28;20061;-63
2022/03/21 12:52:10;;;;;;;13.20;8.97;;;;;;;;;;4502087;28;20117;-64
2022/03/21 12:54:21;;;;;;;11.13;8.43;;;;;;;;;;4504305;28;20037;-63
2022/03/21 12:56:32;;;;;;;11.30;7.93;;;;;;;;;;4503466;28;20038;-63
2022/03/21 12:58:49;;;;;;;12.80;9.38;;;;;;;;;;4501885;28;20037;-63
2022/03/21 13:01:01;;;;;;;11.93;8.65;;;;;;;;;;4502525;28;20638;-63
2022/03/21 13:03:14;;;;;;;12.35;8.82;;;;;;;;;;4501728;28;20037;-63
2022/03/21 13:10:34;;;;;;;12.05;8.52;;;;;;;;;;4502743;28;20080;-63
2022/03/21 13:12:44;;;;;;;12.05;8.73;;;;;;;;;;4502530;28;20652;-64
2022/03/21 13:15:07;;;;;;;12.17;8.87;;;;;;;;;;4502431;28;20108;-63
2022/03/21 13:17:17;;;;;;;11.57;8.73;;;;;;;;;;4517558;28;20514;-64
2022/03/21 13:19:33;;;;;;;11.47;7.97;;;;;;;;;;4502819;28;20593;-63
2022/03/21 13:21:43;;;;;;;11.35;8.35;;;;;;;;;;4502521;28;20550;-64
2022/03/21 13:23:54;;;;;;;11.70;8.23;;;;;;;;;;4500999;28;20030;-63
2022/03/21 13:26:10;;;;;;;10.33;7.97;;;;;;;;;;4502858;28;20041;-63
2022/03/21 13:28:21;;;;;;;11.77;8.35;;;;;;;;;;4502517;28;20056;-63
2022/03/21 13:30:34;;;;;;;12.20;8.10;;;;;;;;;;4502522;28;20125;-63
2022/03/21 13:32:45;;;;;;;11.68;7.97;;;;;;;;;;4517293;28;20040;-63